createdAt,value
2018-08-28T00:01:02.859Z,101283.02
2018-08-28T00:03:33.071Z,101288.63
2018-08-28T00:06:03.157Z,101285.11
2018-08-28T00:08:33.293Z,101287.69
2018-08-28T00:11:03.387Z,101281.03
2018-08-28T00:13:33.444Z,101283.58
2018-08-28T00:16:03.630Z,101281.97
2018-08-28T00:18:33.685Z,101287.30
2018-08-28T00:21:03.952Z,101287.21
2018-08-28T00:23:34.034Z,101286.16
2018-08-28T00:26:04.132Z,101293.39
2018-08-28T00:28:34.222Z,101289.59
2018-08-28T00:31:04.330Z,101290.36
2018-08-28T00:33:34.447Z,101290.36
2018-08-28T00:36:04.678Z,101295.49
2018-08-28T00:38:34.755Z,101289.80
2018-08-28T00:41:04.849Z,101291.21
2018-08-28T00:43:34.916Z,101288.83
2018-08-28T00:46:05.022Z,101296.26
2018-08-28T00:48:35.180Z,101305.78
2018-08-28T00:51:05.296Z,101297.22
2018-08-28T00:53:35.363Z,101307.77
2018-08-28T00:56:05.571Z,101303.77
2018-08-28T00:58:35.623Z,101307.56
2018-08-28T01:01:05.825Z,101313.95
2018-08-28T01:03:35.896Z,101312.61
2018-08-28T01:06:06.046Z,101314.63
2018-08-28T01:08:36.211Z,101316.61
2018-08-28T01:11:06.779Z,101312.61
2018-08-28T01:13:36.936Z,101314.34
2018-08-28T01:16:07.202Z,101318.13
2018-08-28T01:18:37.313Z,101313.85
2018-08-28T01:21:07.456Z,101313.85
2018-08-28T01:23:37.572Z,101312.44
2018-08-28T01:26:08.726Z,101315.09
2018-08-28T01:28:38.802Z,101313.39
2018-08-28T01:31:09.012Z,101317.96
2018-08-28T01:33:39.064Z,101311.37
2018-08-28T01:36:09.193Z,101318.13
2018-08-28T01:38:39.304Z,101317.56
2018-08-28T01:41:09.426Z,101315.31
2018-08-28T01:43:39.546Z,101310.55
2018-08-28T01:46:09.730Z,101314.42
2018-08-28T01:48:39.779Z,101315.77
2018-08-28T01:51:09.930Z,101317.09
2018-08-28T01:53:40.219Z,101316.25
2018-08-28T01:56:10.304Z,101322.53
2018-08-28T01:58:40.411Z,101313.97
2018-08-28T02:01:10.584Z,101314.72
2018-08-28T02:03:40.633Z,101308.61
2018-08-28T02:06:10.746Z,101316.03
2018-08-28T02:08:40.901Z,101322.28
2018-08-28T02:11:10.975Z,101318.97
2018-08-28T02:13:41.066Z,101317.12
2018-08-28T02:16:11.133Z,101319.44
2018-08-28T02:18:41.193Z,101320.48
2018-08-28T02:21:11.312Z,101318.09
2018-08-28T02:23:41.394Z,101320.47
2018-08-28T02:26:11.617Z,101316.19
2018-08-28T02:28:41.750Z,101322.06
2018-08-28T02:31:11.846Z,101326.98
2018-08-28T02:33:42.052Z,101321.08
2018-08-28T02:36:12.174Z,101322.41
2018-08-28T02:38:42.312Z,101324.33
2018-08-28T02:41:12.475Z,101329.07
2018-08-28T02:43:42.670Z,101333.73
2018-08-28T02:46:12.790Z,101330.59
2018-08-28T02:48:42.915Z,101327.56
2018-08-28T02:51:13.314Z,101332.30
2018-08-28T02:53:43.425Z,101325.34
2018-08-28T02:56:13.549Z,101331.55
2018-08-28T02:58:43.674Z,101327.71
2018-08-28T03:01:13.857Z,101334.77
2018-08-28T03:03:43.934Z,101330.56
2018-08-28T03:06:14.126Z,101329.53
2018-08-28T03:08:44.263Z,101329.34
2018-08-28T03:11:14.493Z,101329.53
2018-08-28T03:13:44.703Z,101332.41
2018-08-28T03:16:14.895Z,101331.84
2018-08-28T03:18:45.013Z,101334.22
2018-08-28T03:21:15.103Z,101328.63
2018-08-28T03:23:45.276Z,101334.80
2018-08-28T03:26:15.599Z,101331.29
2018-08-28T03:28:45.732Z,101328.63
2018-08-28T03:31:15.856Z,101336.28
2018-08-28T03:33:45.949Z,101335.36
2018-08-28T03:36:16.103Z,101335.28
2018-08-28T03:38:46.193Z,101338.80
2018-08-28T03:41:16.536Z,101336.66
2018-08-28T03:43:46.606Z,101340.10
2018-08-28T03:46:16.736Z,101338.84
2018-08-28T03:48:46.883Z,101338.84
2018-08-28T03:51:17.146Z,101338.95
2018-08-28T03:53:47.326Z,101343.34
2018-08-28T03:56:17.548Z,101346.28
2018-08-28T03:58:47.889Z,101347.98
2018-08-28T04:01:18.186Z,101347.87
2018-08-28T04:03:48.443Z,101348.64
2018-08-28T04:06:18.592Z,101349.90
2018-08-28T04:08:48.981Z,101360.26
2018-08-28T04:11:19.270Z,101354.72
2018-08-28T04:13:49.381Z,101354.23
2018-08-28T04:16:19.614Z,101349.02
2018-08-28T04:18:49.783Z,101353.30
2018-08-28T04:21:19.961Z,101357.38
2018-08-28T04:23:50.015Z,101357.00
2018-08-28T04:26:20.217Z,101358.34
2018-08-28T04:28:50.384Z,101365.23
2018-08-28T04:31:20.574Z,101361.21
2018-08-28T04:33:50.698Z,101366.52
2018-08-28T04:36:20.806Z,101364.25
2018-08-28T04:38:50.893Z,101366.91
2018-08-28T04:41:21.053Z,101369.36
2018-08-28T04:43:51.141Z,101368.21
2018-08-28T04:46:21.227Z,101371.68
2018-08-28T04:48:51.360Z,101383.63
2018-08-28T04:51:21.553Z,101379.64
2018-08-28T04:53:51.694Z,101381.92
2018-08-28T04:56:22.824Z,101386.48
2018-08-28T04:58:52.906Z,101387.03
2018-08-28T05:01:23.020Z,101388.36
2018-08-28T05:03:53.152Z,101389.73
2018-08-28T05:06:23.255Z,101392.61
2018-08-28T05:08:53.384Z,101395.30
2018-08-28T05:11:23.527Z,101399.78
2018-08-28T05:13:53.622Z,101402.55
2018-08-28T05:16:23.784Z,101400.38
2018-08-28T05:18:53.827Z,101400.27
2018-08-28T05:21:23.921Z,101403.14
2018-08-28T05:23:53.999Z,101411.72
2018-08-28T05:26:24.112Z,101414.20
2018-08-28T05:28:54.247Z,101414.22
2018-08-28T05:31:24.396Z,101416.63
2018-08-28T05:33:54.536Z,101408.92
2018-08-28T05:36:24.718Z,101414.34
2018-08-28T05:38:54.865Z,101414.64
2018-08-28T05:41:25.194Z,101421.99
2018-08-28T05:43:55.396Z,101420.18
2018-08-28T05:46:25.506Z,101414.79
2018-08-28T05:48:55.667Z,101418.28
2018-08-28T05:51:25.855Z,101420.78
2018-08-28T05:53:55.932Z,101414.61
2018-08-28T05:56:26.055Z,101417.65
2018-08-28T05:58:56.147Z,101431.68
2018-08-28T06:01:26.290Z,101430.77
2018-08-28T06:03:56.374Z,101437.24
2018-08-28T06:06:26.492Z,101440.77
2018-08-28T06:08:56.736Z,101434.87
2018-08-28T06:11:27.007Z,101441.92
2018-08-28T06:13:57.239Z,101441.44
2018-08-28T06:16:27.494Z,101445.93
2018-08-28T06:18:57.739Z,101443.44
2018-08-28T06:21:27.862Z,101450.02
2018-08-28T06:23:57.969Z,101451.73
2018-08-28T06:26:28.121Z,101453.63
2018-08-28T06:28:58.344Z,101457.92
2018-08-28T06:31:28.484Z,101456.87
2018-08-28T06:33:58.625Z,101461.07
2018-08-28T06:36:28.862Z,101460.30
2018-08-28T06:38:59.034Z,101472.03
2018-08-28T06:41:29.202Z,101470.86
2018-08-28T06:43:59.469Z,101462.76
2018-08-28T06:46:29.616Z,101468.09
2018-08-28T06:48:59.709Z,101471.31
2018-08-28T06:51:29.943Z,101467.74
2018-08-28T06:54:00.130Z,101476.69
2018-08-28T06:56:30.268Z,101477.00
2018-08-28T06:59:00.605Z,101482.41
2018-08-28T07:01:30.807Z,101479.34
2018-08-28T07:04:00.959Z,101479.64
2018-08-28T07:06:31.077Z,101478.23
2018-08-28T07:09:01.214Z,101481.59
2018-08-28T07:11:31.430Z,101481.29
2018-08-28T07:14:01.692Z,101478.59
2018-08-28T07:16:41.490Z,101483.68
2018-08-28T07:19:11.613Z,101495.27
2018-08-28T07:21:41.882Z,101494.20
2018-08-28T07:24:12.673Z,101493.80
2018-08-28T07:26:42.809Z,101494.29
2018-08-28T07:29:12.980Z,101495.12
2018-08-28T07:31:43.182Z,101490.17
2018-08-28T07:34:13.348Z,101495.14
2018-08-28T07:36:43.531Z,101495.25
2018-08-28T07:39:13.674Z,101499.53
2018-08-28T07:41:43.814Z,101486.72
2018-08-28T07:44:13.996Z,101491.10
2018-08-28T07:46:47.051Z,101489.65
2018-08-28T07:49:17.220Z,101495.70
2018-08-28T07:51:47.392Z,101487.24
2018-08-28T07:54:17.505Z,101490.95
2018-08-28T07:56:47.592Z,101489.26
2018-08-28T07:59:17.753Z,101491.39
2018-08-28T08:01:47.882Z,101492.17
2018-08-28T08:04:18.186Z,101490.43
2018-08-28T08:06:50.502Z,101489.69
2018-08-28T08:09:36.089Z,101493.73
2018-08-28T08:12:13.950Z,101495.97
2018-08-28T08:14:44.008Z,101496.88
2018-08-28T08:17:14.115Z,101493.39
2018-08-28T08:19:44.242Z,101489.00
2018-08-28T08:22:14.531Z,101495.58
2018-08-28T08:24:50.452Z,101493.16
2018-08-28T08:27:20.792Z,101498.23
2018-08-28T08:29:50.910Z,101500.40
2018-08-28T08:32:21.031Z,101493.83
2018-08-28T08:34:51.376Z,101495.59
2018-08-28T08:37:22.228Z,101494.55
2018-08-28T08:39:52.988Z,101494.68
2018-08-28T08:42:23.572Z,101493.50
2018-08-28T08:44:53.621Z,101494.16
2018-08-28T08:47:23.734Z,101496.09
2018-08-28T08:49:53.878Z,101483.39
2018-08-28T08:52:23.994Z,101488.33
2018-08-28T08:54:54.288Z,101490.63
2018-08-28T08:57:25.300Z,101486.50
2018-08-28T08:59:55.402Z,101487.03
2018-08-28T09:02:25.595Z,101488.97
2018-08-28T09:05:04.597Z,101494.31
2018-08-28T09:07:34.765Z,101489.13
2018-08-28T09:10:05.043Z,101479.97
2018-08-28T09:12:35.216Z,101482.95
2018-08-28T09:15:05.424Z,101492.48
2018-08-28T09:17:35.945Z,101486.97
2018-08-28T09:20:06.403Z,101486.31
2018-08-28T09:22:36.684Z,101481.09
2018-08-28T09:25:08.156Z,101475.42
2018-08-28T09:27:38.414Z,101481.17
2018-08-28T09:30:09.414Z,101473.94
2018-08-28T09:32:40.377Z,101472.62
2018-08-28T09:35:10.606Z,101480.89
2018-08-28T09:37:40.801Z,101477.14
2018-08-28T09:40:10.994Z,101481.92
2018-08-28T09:43:09.231Z,101470.03
2018-08-28T09:45:53.250Z,101473.84
2018-08-28T09:48:29.332Z,101470.19
2018-08-28T09:50:59.602Z,101472.66
2018-08-28T09:53:29.962Z,101465.84
2018-08-28T09:56:00.174Z,101466.12
2018-08-28T09:58:30.364Z,101456.17
2018-08-28T10:01:05.616Z,101462.05
2018-08-28T10:03:35.759Z,101467.13
2018-08-28T10:06:05.883Z,101467.92
2018-08-28T10:08:35.974Z,101464.09
2018-08-28T10:11:06.290Z,101463.20
2018-08-28T10:13:36.376Z,101465.70
2018-08-28T10:16:06.502Z,101464.98
2018-08-28T10:18:36.696Z,101463.65
2018-08-28T10:21:06.879Z,101457.54
2018-08-28T10:23:37.087Z,101458.72
2018-08-28T10:26:07.194Z,101454.80
2018-08-28T10:28:37.311Z,101451.20
2018-08-28T10:31:07.475Z,101445.70
2018-08-28T10:33:37.643Z,101440.60
2018-08-28T10:36:07.857Z,101441.81
2018-08-28T10:38:40.605Z,101439.10
2018-08-28T10:41:10.703Z,101433.01
2018-08-28T10:43:40.848Z,101428.48
2018-08-28T10:46:11.041Z,101429.00
2018-08-28T10:48:41.244Z,101423.27
2018-08-28T10:51:20.419Z,101418.38
2018-08-28T10:53:50.607Z,101426.64
2018-08-28T10:56:20.776Z,101419.77
2018-08-28T10:58:51.202Z,101426.75
2018-08-28T11:01:21.079Z,101418.17
2018-08-28T11:03:51.356Z,101423.05
2018-08-28T11:06:30.202Z,101422.78
2018-08-28T11:09:09.052Z,101427.20
2018-08-28T11:11:39.120Z,101424.14
2018-08-28T11:14:09.282Z,101421.03
2018-08-28T11:16:39.374Z,101415.80
2018-08-28T11:19:09.794Z,101411.86
2018-08-28T11:21:39.907Z,101417.75
2018-08-28T11:24:10.084Z,101409.09
2018-08-28T11:26:40.172Z,101407.88
2018-08-28T11:29:10.360Z,101403.92
2018-08-28T11:31:40.555Z,101406.08
2018-08-28T11:34:10.590Z,101411.77
2018-08-28T11:36:40.708Z,101398.82
2018-08-28T11:39:10.815Z,101392.94
2018-08-28T11:41:40.955Z,101392.17
2018-08-28T11:44:11.153Z,101396.58
2018-08-28T11:46:41.309Z,101392.39
2018-08-28T11:49:11.456Z,101396.86
2018-08-28T11:51:41.671Z,101391.06
2018-08-28T11:54:11.858Z,101389.03
2018-08-28T11:56:42.019Z,101392.91
2018-08-28T11:59:12.175Z,101394.71
2018-08-28T12:01:42.342Z,101392.45
2018-08-28T12:04:12.528Z,101404.04
2018-08-28T12:06:42.660Z,101396.88
2018-08-28T12:09:13.059Z,101397.09
2018-08-28T12:11:43.068Z,101396.36
2018-08-28T12:14:13.380Z,101401.96
2018-08-28T12:16:43.494Z,101388.94
2018-08-28T12:19:13.689Z,101387.89
2018-08-28T12:21:43.735Z,101387.78
2018-08-28T12:24:13.829Z,101379.11
2018-08-28T12:26:43.967Z,101385.59
2018-08-28T12:29:14.075Z,101384.02
2018-08-28T12:31:44.218Z,101384.31
2018-08-28T12:34:14.309Z,101375.53
2018-08-28T12:36:44.456Z,101369.95
2018-08-28T12:39:14.579Z,101372.86
2018-08-28T12:41:44.692Z,101367.66
2018-08-28T12:44:14.904Z,101366.43
2018-08-28T12:46:45.032Z,101361.67
2018-08-28T12:49:15.175Z,101360.95
2018-08-28T12:51:45.264Z,101356.08
2018-08-28T12:54:15.408Z,101354.14
2018-08-28T12:56:45.514Z,101351.26
2018-08-28T12:59:15.717Z,101352.01
2018-08-28T13:01:45.864Z,101349.20
2018-08-28T13:04:16.060Z,101351.41
2018-08-28T13:06:46.191Z,101342.66
2018-08-28T13:09:16.536Z,101347.30
2018-08-28T13:11:46.650Z,101341.47
2018-08-28T13:14:16.741Z,101337.48
2018-08-28T13:16:46.973Z,101333.05
2018-08-28T13:19:17.183Z,101331.43
2018-08-28T13:21:47.301Z,101331.81
2018-08-28T13:24:17.381Z,101323.98
2018-08-28T13:26:47.497Z,101316.92
2018-08-28T13:29:17.637Z,101313.52
2018-08-28T13:31:47.774Z,101314.28
2018-08-28T13:34:18.005Z,101313.70
2018-08-28T13:36:48.131Z,101316.67
2018-08-28T13:39:18.299Z,101306.82
2018-08-28T13:41:48.851Z,101312.59
2018-08-28T13:44:18.989Z,101302.70
2018-08-28T13:46:49.263Z,101302.47
2018-08-28T13:49:19.426Z,101296.31
2018-08-28T13:51:49.632Z,101295.16
2018-08-28T13:54:19.924Z,101285.25
2018-08-28T13:56:50.020Z,101291.95
2018-08-28T13:59:20.468Z,101286.28
2018-08-28T14:01:50.607Z,101286.04
2018-08-28T14:04:20.788Z,101277.16
2018-08-28T14:06:50.923Z,101273.11
2018-08-28T14:09:21.211Z,101269.85
2018-08-28T14:11:51.412Z,101273.66
2018-08-28T14:14:21.807Z,101277.24
2018-08-28T14:16:52.097Z,101274.06
2018-08-28T14:19:22.414Z,101277.41
2018-08-28T14:21:53.266Z,101272.07
2018-08-28T14:24:23.522Z,101269.06
2018-08-28T14:26:54.295Z,101268.64
2018-08-28T14:29:25.268Z,101270.67
2018-08-28T14:31:55.346Z,101269.03
2018-08-28T14:34:25.541Z,101267.01
2018-08-28T14:36:55.635Z,101264.52
2018-08-28T14:39:25.836Z,101258.71
2018-08-28T14:41:56.045Z,101259.59
2018-08-28T14:44:26.220Z,101261.89
2018-08-28T14:46:56.325Z,101259.79
2018-08-28T14:49:26.534Z,101259.92
2018-08-28T14:51:56.720Z,101257.73
2018-08-28T14:54:26.871Z,101251.58
2018-08-28T14:56:57.019Z,101248.16
2018-08-28T14:59:27.193Z,101246.02
2018-08-28T15:01:57.505Z,101254.70
2018-08-28T15:04:27.661Z,101252.89
2018-08-28T15:06:57.895Z,101247.91
2018-08-28T15:09:28.155Z,101246.22
2018-08-28T15:11:58.318Z,101242.25
2018-08-28T15:14:28.512Z,101238.41
2018-08-28T15:16:58.664Z,101235.97
2018-08-28T15:19:28.932Z,101227.14
2018-08-28T15:21:59.416Z,101234.78
2018-08-28T15:24:29.921Z,101224.63
2018-08-28T15:27:00.365Z,101228.17
2018-08-28T15:29:30.524Z,101224.92
2018-08-28T15:32:00.592Z,101220.89
2018-08-28T15:34:30.733Z,101221.36
2018-08-28T15:37:00.893Z,101216.35
2018-08-28T15:39:31.085Z,101217.26
2018-08-28T15:42:01.270Z,101211.34
2018-08-28T15:44:31.446Z,101210.88
2018-08-28T15:47:01.651Z,101205.97
2018-08-28T15:49:32.014Z,101205.76
2018-08-28T15:52:02.195Z,101193.38
2018-08-28T15:54:32.387Z,101197.63
2018-08-28T15:57:02.488Z,101200.70
2018-08-28T15:59:32.792Z,101207.16
2018-08-28T16:02:03.198Z,101205.12
2018-08-28T16:04:33.351Z,101204.58
2018-08-28T16:07:03.479Z,101208.83
2018-08-28T16:09:33.672Z,101202.03
2018-08-28T16:12:03.769Z,101202.73
2018-08-28T16:14:33.876Z,101200.83
2018-08-28T16:17:04.028Z,101194.38
2018-08-28T16:19:34.202Z,101204.56
2018-08-28T16:22:05.194Z,101192.08
2018-08-28T16:24:35.352Z,101197.92
2018-08-28T16:27:05.434Z,101192.70
2018-08-28T16:29:35.625Z,101184.55
2018-08-28T16:32:05.710Z,101180.42
2018-08-28T16:34:35.822Z,101180.64
2018-08-28T16:37:06.036Z,101177.28
2018-08-28T16:39:36.232Z,101177.92
2018-08-28T16:42:06.325Z,101166.70
2018-08-28T16:44:36.510Z,101173.72
2018-08-28T16:47:06.652Z,101168.80
2018-08-28T16:49:36.825Z,101169.44
2018-08-28T16:52:07.140Z,101168.77
2018-08-28T16:54:37.304Z,101168.52
2018-08-28T16:57:07.388Z,101167.75
2018-08-28T16:59:37.591Z,101160.38
2018-08-28T17:02:07.832Z,101161.52
2018-08-28T17:04:37.953Z,101163.37
2018-08-28T17:07:08.134Z,101156.56
2018-08-28T17:09:38.251Z,101150.80
2018-08-28T17:12:08.436Z,101144.05
2018-08-28T17:14:38.637Z,101133.55
2018-08-28T17:17:08.800Z,101134.31
2018-08-28T17:19:39.066Z,101133.16
2018-08-28T17:22:09.224Z,101134.72
2018-08-28T17:24:39.426Z,101134.02
2018-08-28T17:27:09.518Z,101135.02
2018-08-28T17:29:39.734Z,101136.80
2018-08-28T17:32:09.938Z,101132.63
2018-08-28T17:34:40.149Z,101133.84
2018-08-28T17:37:10.349Z,101124.83
2018-08-28T17:39:40.405Z,101125.80
2018-08-28T17:42:10.573Z,101133.80
2018-08-28T17:44:40.727Z,101136.73
2018-08-28T17:47:10.815Z,101135.12
2018-08-28T17:49:41.226Z,101134.23
2018-08-28T17:52:11.316Z,101134.58
2018-08-28T17:54:41.554Z,101136.30
2018-08-28T17:57:11.620Z,101135.24
2018-08-28T17:59:41.781Z,101138.56
2018-08-28T18:02:11.851Z,101139.61
2018-08-28T18:04:41.994Z,101140.79
2018-08-28T18:07:12.120Z,101141.25
2018-08-28T18:09:42.237Z,101146.77
2018-08-28T18:12:12.292Z,101137.06
2018-08-28T18:14:42.468Z,101135.39
2018-08-28T18:17:12.593Z,101141.47
2018-08-28T18:19:42.655Z,101140.50
2018-08-28T18:22:12.825Z,101148.95
2018-08-28T18:24:42.894Z,101145.22
2018-08-28T18:27:12.979Z,101146.03
2018-08-28T18:29:43.156Z,101144.58
2018-08-28T18:32:13.544Z,101140.32
2018-08-28T18:34:43.756Z,101133.61
2018-08-28T18:37:13.778Z,101138.00
2018-08-28T18:39:43.927Z,101142.64
2018-08-28T18:42:14.039Z,101140.22
2018-08-28T18:44:44.132Z,101136.83
2018-08-28T18:47:14.225Z,101139.40
2018-08-28T18:49:44.357Z,101136.12
2018-08-28T18:52:14.470Z,101137.44
2018-08-28T18:54:44.594Z,101136.96
2018-08-28T18:57:14.837Z,101133.41
2018-08-28T18:59:44.968Z,101135.75
2018-08-28T19:02:15.116Z,101127.33
2018-08-28T19:04:45.227Z,101126.38
2018-08-28T19:07:15.373Z,101131.42
2018-08-28T19:09:45.524Z,101137.34
2018-08-28T19:12:15.667Z,101136.00
2018-08-28T19:14:45.900Z,101131.48
2018-08-28T19:17:15.985Z,101130.85
2018-08-28T19:19:46.347Z,101129.00
2018-08-28T19:22:16.449Z,101125.59
2018-08-28T19:24:46.679Z,101127.50
2018-08-28T19:27:16.820Z,101125.41
2018-08-28T19:29:47.019Z,101130.25
2018-08-28T19:32:17.124Z,101130.59
2018-08-28T19:34:47.314Z,101131.80
2018-08-28T19:37:17.516Z,101134.92
2018-08-28T19:39:47.766Z,101133.02
2018-08-28T19:42:17.951Z,101126.20
2018-08-28T19:44:48.155Z,101129.44
2018-08-28T19:47:19.506Z,101127.74
2018-08-28T19:49:49.688Z,101130.23
2018-08-28T19:52:19.733Z,101122.88
2018-08-28T19:54:49.857Z,101128.34
2018-08-28T19:57:20.034Z,101126.67
2018-08-28T19:59:50.256Z,101133.94
2018-08-28T20:02:20.440Z,101124.36
2018-08-28T20:04:51.318Z,101123.80
2018-08-28T20:07:21.400Z,101122.70
2018-08-28T20:09:51.560Z,101115.41
2018-08-28T20:12:21.615Z,101118.52
2018-08-28T20:14:51.799Z,101112.27
2018-08-28T20:17:21.967Z,101120.29
2018-08-28T20:19:52.104Z,101117.45
2018-08-28T20:22:22.297Z,101113.06
2018-08-28T20:24:52.510Z,101113.70
2018-08-28T20:27:23.103Z,101113.23
2018-08-28T20:29:53.407Z,101116.00
2018-08-28T20:32:23.540Z,101116.86
2018-08-28T20:34:53.678Z,101116.59
2018-08-28T20:37:24.801Z,101112.42
2018-08-28T20:39:54.980Z,101109.64
2018-08-28T20:42:25.311Z,101111.49
2018-08-28T20:44:55.570Z,101106.98
2018-08-28T20:47:25.759Z,101104.16
2018-08-28T20:49:56.004Z,101101.36
2018-08-28T20:52:26.052Z,101098.89
2018-08-28T20:54:56.197Z,101087.50
2018-08-28T20:57:26.249Z,101096.53
2018-08-28T20:59:56.497Z,101092.48
2018-08-28T21:02:26.694Z,101087.77
2018-08-28T21:04:56.863Z,101081.55
2018-08-28T21:07:26.926Z,101083.48
2018-08-28T21:09:57.071Z,101081.93
2018-08-28T21:12:27.210Z,101080.66
2018-08-28T21:14:57.348Z,101076.14
2018-08-28T21:17:27.470Z,101071.61
2018-08-28T21:19:57.685Z,101064.02
2018-08-28T21:22:28.610Z,101067.08
2018-08-28T21:24:58.744Z,101064.80
2018-08-28T21:27:28.847Z,101061.97
2018-08-28T21:29:59.013Z,101063.76
2018-08-28T21:32:29.212Z,101057.80
2018-08-28T21:34:59.394Z,101057.53
2018-08-28T21:37:29.568Z,101055.94
2018-08-28T21:39:59.789Z,101056.26
2018-08-28T21:42:29.855Z,101062.66
2018-08-28T21:45:00.035Z,101057.50
2018-08-28T21:47:30.173Z,101051.14
2018-08-28T21:50:00.273Z,101051.50
2018-08-28T21:52:30.389Z,101042.77
2018-08-28T21:55:00.547Z,101040.29
2018-08-28T21:57:30.635Z,101040.24
2018-08-28T22:00:00.721Z,101032.19
2018-08-28T22:02:30.907Z,101032.87
2018-08-28T22:05:01.031Z,101028.41
2018-08-28T22:07:36.239Z,101038.69
2018-08-28T22:10:06.528Z,101030.81
2018-08-28T22:12:36.708Z,101038.59
2018-08-28T22:15:11.501Z,101034.42
2018-08-28T22:17:42.272Z,101035.53
2018-08-28T22:20:12.609Z,101036.91
2018-08-28T22:22:42.741Z,101038.33
2018-08-28T22:25:12.895Z,101031.27
2018-08-28T22:27:43.048Z,101020.28
2018-08-28T22:30:13.336Z,101029.86
2018-08-28T22:32:43.566Z,101022.31
2018-08-28T22:35:13.720Z,101021.15
2018-08-28T22:37:43.890Z,101019.52
2018-08-28T22:40:14.067Z,101027.66
2018-08-28T22:42:44.255Z,101027.05
2018-08-28T22:45:14.460Z,101025.66
2018-08-28T22:47:44.562Z,101025.22
2018-08-28T22:50:14.734Z,101024.09
2018-08-28T22:52:44.829Z,101024.86
2018-08-28T22:55:14.933Z,101028.14
2018-08-28T22:57:45.054Z,101028.27
2018-08-28T23:00:15.226Z,101024.39
2018-08-28T23:02:45.339Z,101024.03
2018-08-28T23:05:15.405Z,101021.02
2018-08-28T23:07:45.496Z,101013.72
2018-08-28T23:10:15.650Z,101002.51
2018-08-28T23:12:45.805Z,100996.72
2018-08-28T23:15:16.011Z,101003.17
2018-08-28T23:17:46.238Z,101002.05
2018-08-28T23:20:16.645Z,100999.52
2018-08-28T23:22:46.735Z,100997.27
2018-08-28T23:25:16.851Z,100998.02
2018-08-28T23:27:47.001Z,101003.17
2018-08-28T23:30:17.175Z,100999.30
2018-08-28T23:32:47.255Z,100998.91
2018-08-28T23:35:17.437Z,100995.17
2018-08-28T23:37:47.539Z,100996.61
2018-08-28T23:40:17.815Z,100993.67
2018-08-28T23:42:47.997Z,100996.04
2018-08-28T23:45:18.094Z,100993.28
2018-08-28T23:47:48.202Z,100994.45
2018-08-28T23:50:18.320Z,100991.49
2018-08-28T23:52:48.380Z,100991.28
2018-08-28T23:55:18.519Z,100987.97
2018-08-28T23:57:48.654Z,100989.87
